sensor_id;sensor_type;location;lat;lon;timestamp;pressure;altitude;pressure_sealevel;temperature;humidity
21545;BME280;10933;50.754;11.508;2023-06-10T00:00:40;99456.56;;;14.06;100.00
21545;BME280;10933;50.754;11.508;2023-06-10T00:03:10;99456.59;;;14.01;100.00
21545;BME280;10933;50.754;11.508;2023-06-10T00:05:36;99466.34;;;13.97;100.00
21545;BME280;10933;50.754;11.508;2023-06-10T00:08:05;99458.75;;;13.99;100.00
21545;BME280;10933;50.754;11.508;2023-06-10T00:10:38;99462.31;;;13.90;100.00
21545;BME280;10933;50.754;11.508;2023-06-10T00:13:06;99459.88;;;13.88;100.00
21545;BME280;10933;50.754;11.508;2023-06-10T00:15:34;99465.59;;;13.76;100.00
21545;BME280;10933;50.754;11.508;2023-06-10T00:18:04;99456.09;;;13.74;100.00
21545;BME280;10933;50.754;11.508;2023-06-10T00:20:30;99458.28;;;13.67;100.00
21545;BME280;10933;50.754;11.508;2023-06-10T00:22:59;99471.31;;;13.60;100.00
21545;BME280;10933;50.754;11.508;2023-06-10T00:25:27;99469.94;;;13.52;100.00
21545;BME280;10933;50.754;11.508;2023-06-10T00:27:54;99460.47;;;13.49;100.00
21545;BME280;10933;50.754;11.508;2023-06-10T00:30:20;99473.47;;;13.47;100.00
21545;BME280;10933;50.754;11.508;2023-06-10T00:32:47;99472.38;;;13.43;100.00
21545;BME280;10933;50.754;11.508;2023-06-10T00:35:13;99476.72;;;13.39;100.00
21545;BME280;10933;50.754;11.508;2023-06-10T00:37:39;99486.50;;;13.35;100.00
21545;BME280;10933;50.754;11.508;2023-06-10T00:40:07;99491.88;;;13.30;100.00
21545;BME280;10933;50.754;11.508;2023-06-10T00:42:35;99491.09;;;13.24;100.00
21545;BME280;10933;50.754;11.508;2023-06-10T00:45:01;99480.50;;;13.28;100.00
21545;BME280;10933;50.754;11.508;2023-06-10T00:47:28;99475.09;;;13.38;100.00
21545;BME280;10933;50.754;11.508;2023-06-10T00:49:55;99488.91;;;13.21;100.00
21545;BME280;10933;50.754;11.508;2023-06-10T00:52:22;99495.66;;;13.19;100.00
21545;BME280;10933;50.754;11.508;2023-06-10T00:54:53;99482.91;;;13.14;100.00
21545;BME280;10933;50.754;11.508;2023-06-10T00:57:20;99487.78;;;13.12;100.00
21545;BME280;10933;50.754;11.508;2023-06-10T00:59:48;99490.78;;;13.11;100.00
21545;BME280;10933;50.754;11.508;2023-06-10T01:02:15;99496.19;;;13.11;100.00
21545;BME280;10933;50.754;11.508;2023-06-10T01:04:42;99491.56;;;13.16;100.00
21545;BME280;10933;50.754;11.508;2023-06-10T01:07:21;99502.41;;;13.16;100.00
21545;BME280;10933;50.754;11.508;2023-06-10T01:10:04;99497.84;;;13.22;100.00
21545;BME280;10933;50.754;11.508;2023-06-10T01:15:02;99499.97;;;13.10;100.00
21545;BME280;10933;50.754;11.508;2023-06-10T01:17:29;99500.22;;;13.08;100.00
21545;BME280;10933;50.754;11.508;2023-06-10T01:19:59;99504.56;;;13.04;100.00
21545;BME280;10933;50.754;11.508;2023-06-10T01:22:26;99506.44;;;13.04;100.00
21545;BME280;10933;50.754;11.508;2023-06-10T01:24:58;99508.06;;;13.05;100.00
21545;BME280;10933;50.754;11.508;2023-06-10T01:27:29;99507.81;;;13.01;100.00
21545;BME280;10933;50.754;11.508;2023-06-10T01:30:04;99499.38;;;12.92;100.00
21545;BME280;10933;50.754;11.508;2023-06-10T01:32:36;99504.25;;;12.85;100.00
21545;BME280;10933;50.754;11.508;2023-06-10T01:35:04;99509.88;;;12.68;100.00
21545;BME280;10933;50.754;11.508;2023-06-10T01:37:31;99502.84;;;12.67;100.00
21545;BME280;10933;50.754;11.508;2023-06-10T01:40:02;99505.25;;;12.59;100.00
21545;BME280;10933;50.754;11.508;2023-06-10T01:42:32;99503.91;;;12.61;100.00
21545;BME280;10933;50.754;11.508;2023-06-10T01:44:59;99513.34;;;12.49;100.00
21545;BME280;10933;50.754;11.508;2023-06-10T01:47:25;99510.63;;;12.49;100.00
21545;BME280;10933;50.754;11.508;2023-06-10T01:49:51;99505.72;;;12.41;100.00
21545;BME280;10933;50.754;11.508;2023-06-10T01:52:18;99510.56;;;12.33;100.00
21545;BME280;10933;50.754;11.508;2023-06-10T01:54:44;99512.41;;;12.23;100.00
21545;BME280;10933;50.754;11.508;2023-06-10T01:57:10;99515.06;;;12.18;100.00
21545;BME280;10933;50.754;11.508;2023-06-10T01:59:37;99514.78;;;12.14;100.00
21545;BME280;10933;50.754;11.508;2023-06-10T02:02:04;99521.72;;;12.00;100.00
21545;BME280;10933;50.754;11.508;2023-06-10T02:04:31;99528.22;;;11.99;100.00
21545;BME280;10933;50.754;11.508;2023-06-10T02:06:57;99527.94;;;11.95;100.00
21545;BME280;10933;50.754;11.508;2023-06-10T02:09:24;99529.53;;;11.96;100.00
21545;BME280;10933;50.754;11.508;2023-06-10T02:11:50;99534.97;;;12.01;100.00
21545;BME280;10933;50.754;11.508;2023-06-10T02:14:17;99532.50;;;11.95;100.00
21545;BME280;10933;50.754;11.508;2023-06-10T02:16:43;99530.28;;;11.87;100.00
21545;BME280;10933;50.754;11.508;2023-06-10T02:19:11;99520.03;;;11.94;100.00
21545;BME280;10933;50.754;11.508;2023-06-10T02:21:38;99524.88;;;11.87;100.00
21545;BME280;10933;50.754;11.508;2023-06-10T02:24:05;99520.50;;;11.81;100.00
21545;BME280;10933;50.754;11.508;2023-06-10T02:26:31;99520.41;;;11.70;100.00
21545;BME280;10933;50.754;11.508;2023-06-10T02:28:58;99516.03;;;11.64;100.00
21545;BME280;10933;50.754;11.508;2023-06-10T02:31:24;99530.84;;;11.57;100.00
21545;BME280;10933;50.754;11.508;2023-06-10T02:33:51;99538.72;;;11.63;100.00
21545;BME280;10933;50.754;11.508;2023-06-10T02:36:17;99541.34;;;11.53;100.00
21545;BME280;10933;50.754;11.508;2023-06-10T02:38:43;99532.75;;;11.61;100.00
21545;BME280;10933;50.754;11.508;2023-06-10T02:41:09;99545.66;;;11.54;100.00
21545;BME280;10933;50.754;11.508;2023-06-10T02:43:36;99542.41;;;11.52;100.00
21545;BME280;10933;50.754;11.508;2023-06-10T02:46:02;99546.59;;;11.38;100.00
21545;BME280;10933;50.754;11.508;2023-06-10T02:48:28;99551.44;;;11.36;100.00
21545;BME280;10933;50.754;11.508;2023-06-10T02:50:54;99556.50;;;11.27;100.00
21545;BME280;10933;50.754;11.508;2023-06-10T02:53:21;99566.97;;;11.18;100.00
21545;BME280;10933;50.754;11.508;2023-06-10T02:55:48;99560.63;;;11.35;100.00
21545;BME280;10933;50.754;11.508;2023-06-10T02:58:14;99564.81;;;11.47;100.00
21545;BME280;10933;50.754;11.508;2023-06-10T03:00:41;99562.78;;;11.33;100.00
21545;BME280;10933;50.754;11.508;2023-06-10T03:03:08;99563.25;;;11.30;100.00
21545;BME280;10933;50.754;11.508;2023-06-10T03:05:36;99570.94;;;11.43;100.00
21545;BME280;10933;50.754;11.508;2023-06-10T03:08:02;99566.59;;;11.37;100.00
21545;BME280;10933;50.754;11.508;2023-06-10T03:10:28;99555.63;;;11.22;100.00
21545;BME280;10933;50.754;11.508;2023-06-10T03:12:54;99568.47;;;11.09;100.00
21545;BME280;10933;50.754;11.508;2023-06-10T03:15:21;99558.38;;;11.27;100.00
21545;BME280;10933;50.754;11.508;2023-06-10T03:17:47;99562.25;;;11.36;100.00
21545;BME280;10933;50.754;11.508;2023-06-10T03:20:13;99561.63;;;11.29;100.00
21545;BME280;10933;50.754;11.508;2023-06-10T03:22:41;99548.13;;;11.29;100.00
21545;BME280;10933;50.754;11.508;2023-06-10T03:25:08;99557.78;;;11.19;100.00
21545;BME280;10933;50.754;11.508;2023-06-10T03:27:40;99568.78;;;11.40;100.00
21545;BME280;10933;50.754;11.508;2023-06-10T03:30:07;99558.16;;;11.60;100.00
21545;BME280;10933;50.754;11.508;2023-06-10T03:32:33;99575.91;;;11.51;100.00
21545;BME280;10933;50.754;11.508;2023-06-10T03:34:59;99568.25;;;11.43;100.00
21545;BME280;10933;50.754;11.508;2023-06-10T03:37:25;99565.91;;;11.52;100.00
21545;BME280;10933;50.754;11.508;2023-06-10T03:39:52;99570.91;;;11.38;100.00
21545;BME280;10933;50.754;11.508;2023-06-10T03:42:18;99568.25;;;11.43;100.00
21545;BME280;10933;50.754;11.508;2023-06-10T03:44:44;99581.09;;;11.58;100.00
21545;BME280;10933;50.754;11.508;2023-06-10T03:47:10;99582.72;;;11.59;100.00
21545;BME280;10933;50.754;11.508;2023-06-10T03:49:36;99591.28;;;11.50;100.00
21545;BME280;10933;50.754;11.508;2023-06-10T03:52:03;99590.44;;;11.45;100.00
21545;BME280;10933;50.754;11.508;2023-06-10T03:54:29;99598.03;;;11.48;100.00
21545;BME280;10933;50.754;11.508;2023-06-10T03:56:57;99594.78;;;11.46;100.00
21545;BME280;10933;50.754;11.508;2023-06-10T03:59:23;99600.88;;;11.63;100.00
21545;BME280;10933;50.754;11.508;2023-06-10T04:01:49;99608.34;;;12.15;100.00
21545;BME280;10933;50.754;11.508;2023-06-10T04:04:16;99615.53;;;12.94;100.00
21545;BME280;10933;50.754;11.508;2023-06-10T04:06:44;99606.81;;;13.65;100.00
21545;BME280;10933;50.754;11.508;2023-06-10T04:09:11;99594.59;;;14.38;100.00
21545;BME280;10933;50.754;11.508;2023-06-10T04:11:41;99597.16;;;15.44;100.00
21545;BME280;10933;50.754;11.508;2023-06-10T04:14:07;99586.78;;;16.19;100.00
21545;BME280;10933;50.754;11.508;2023-06-10T04:16:34;99578.50;;;16.82;100.00
21545;BME280;10933;50.754;11.508;2023-06-10T04:19:01;99570.31;;;17.06;100.00
21545;BME280;10933;50.754;11.508;2023-06-10T04:21:27;99578.34;;;17.16;100.00
21545;BME280;10933;50.754;11.508;2023-06-10T04:23:53;99575.00;;;17.00;100.00
21545;BME280;10933;50.754;11.508;2023-06-10T04:26:19;99575.50;;;17.97;100.00
21545;BME280;10933;50.754;11.508;2023-06-10T04:28:46;99576.31;;;18.57;100.00
21545;BME280;10933;50.754;11.508;2023-06-10T04:31:12;99588.28;;;18.29;100.00
21545;BME280;10933;50.754;11.508;2023-06-10T04:33:38;99583.88;;;18.46;100.00
21545;BME280;10933;50.754;11.508;2023-06-10T04:36:05;99569.66;;;18.77;100.00
21545;BME280;10933;50.754;11.508;2023-06-10T04:38:33;99579.44;;;19.05;100.00
21545;BME280;10933;50.754;11.508;2023-06-10T04:40:59;99591.19;;;19.06;100.00
21545;BME280;10933;50.754;11.508;2023-06-10T04:43:25;99597.38;;;18.70;100.00
21545;BME280;10933;50.754;11.508;2023-06-10T04:45:54;99596.34;;;18.66;100.00
21545;BME280;10933;50.754;11.508;2023-06-10T04:48:21;99601.31;;;19.19;100.00
21545;BME280;10933;50.754;11.508;2023-06-10T04:50:47;99620.97;;;19.44;100.00
21545;BME280;10933;50.754;11.508;2023-06-10T04:53:13;99659.00;;;19.59;100.00
21545;BME280;10933;50.754;11.508;2023-06-10T04:55:41;99675.41;;;19.59;100.00
21545;BME280;10933;50.754;11.508;2023-06-10T04:58:07;99679.38;;;19.89;100.00
21545;BME280;10933;50.754;11.508;2023-06-10T05:00:33;99694.72;;;20.12;100.00
21545;BME280;10933;50.754;11.508;2023-06-10T05:02:59;99713.59;;;20.59;100.00
21545;BME280;10933;50.754;11.508;2023-06-10T05:05:26;99735.88;;;20.66;100.00
21545;BME280;10933;50.754;11.508;2023-06-10T05:07:52;99738.03;;;20.46;100.00
21545;BME280;10933;50.754;11.508;2023-06-10T05:10:18;99736.13;;;20.55;100.00
21545;BME280;10933;50.754;11.508;2023-06-10T05:12:45;99743.06;;;21.15;100.00
21545;BME280;10933;50.754;11.508;2023-06-10T05:15:11;99739.03;;;21.12;100.00
21545;BME280;10933;50.754;11.508;2023-06-10T05:17:37;99734.94;;;22.07;100.00
21545;BME280;10933;50.754;11.508;2023-06-10T05:20:04;99762.56;;;22.45;100.00
21545;BME280;10933;50.754;11.508;2023-06-10T05:22:30;99924.53;;;21.84;100.00
21545;BME280;10933;50.754;11.508;2023-06-10T05:24:56;99939.13;;;21.93;100.00
21545;BME280;10933;50.754;11.508;2023-06-10T05:27:22;99947.88;;;20.97;100.00
21545;BME280;10933;50.754;11.508;2023-06-10T05:29:49;99944.50;;;21.36;100.00
21545;BME280;10933;50.754;11.508;2023-06-10T05:32:15;99947.38;;;21.62;100.00
21545;BME280;10933;50.754;11.508;2023-06-10T05:34:41;99953.91;;;21.75;100.00
21545;BME280;10933;50.754;11.508;2023-06-10T05:37:07;99940.31;;;22.49;100.00
21545;BME280;10933;50.754;11.508;2023-06-10T05:39:35;99924.75;;;22.36;100.00
21545;BME280;10933;50.754;11.508;2023-06-10T05:42:04;99924.81;;;22.62;100.00
21545;BME280;10933;50.754;11.508;2023-06-10T05:44:30;99917.41;;;22.88;100.00
21545;BME280;10933;50.754;11.508;2023-06-10T05:46:56;99925.97;;;23.04;100.00
21545;BME280;10933;50.754;11.508;2023-06-10T05:49:22;99940.50;;;23.39;100.00
21545;BME280;10933;50.754;11.508;2023-06-10T05:51:49;99959.25;;;23.55;100.00
21545;BME280;10933;50.754;11.508;2023-06-10T05:54:15;99974.59;;;23.90;100.00
21545;BME280;10933;50.754;11.508;2023-06-10T05:56:41;99977.72;;;23.63;100.00
21545;BME280;10933;50.754;11.508;2023-06-10T05:59:07;99982.63;;;24.04;100.00
21545;BME280;10933;50.754;11.508;2023-06-10T06:01:33;99981.75;;;24.21;100.00
21545;BME280;10933;50.754;11.508;2023-06-10T06:03:59;99906.53;;;24.71;100.00
21545;BME280;10933;50.754;11.508;2023-06-10T06:06:26;99863.09;;;25.34;100.00
21545;BME280;10933;50.754;11.508;2023-06-10T06:08:52;99875.66;;;24.56;100.00
21545;BME280;10933;50.754;11.508;2023-06-10T06:11:18;99859.13;;;25.10;100.00
21545;BME280;10933;50.754;11.508;2023-06-10T06:13:44;99841.53;;;25.97;100.00
21545;BME280;10933;50.754;11.508;2023-06-10T06:16:10;99798.00;;;26.06;100.00
21545;BME280;10933;50.754;11.508;2023-06-10T06:18:37;99846.84;;;24.99;100.00
21545;BME280;10933;50.754;11.508;2023-06-10T06:21:03;99861.91;;;25.22;100.00
21545;BME280;10933;50.754;11.508;2023-06-10T06:23:29;99867.63;;;25.05;100.00
21545;BME280;10933;50.754;11.508;2023-06-10T06:25:56;99898.19;;;23.99;100.00
21545;BME280;10933;50.754;11.508;2023-06-10T06:28:22;99914.66;;;23.78;100.00
21545;BME280;10933;50.754;11.508;2023-06-10T06:30:48;99925.94;;;24.24;100.00
21545;BME280;10933;50.754;11.508;2023-06-10T06:33:20;99903.63;;;24.17;100.00
21545;BME280;10933;50.754;11.508;2023-06-10T06:35:46;99906.94;;;24.01;100.00
21545;BME280;10933;50.754;11.508;2023-06-10T06:38:13;99926.03;;;24.65;100.00
21545;BME280;10933;50.754;11.508;2023-06-10T06:40:39;99911.19;;;24.28;100.00
21545;BME280;10933;50.754;11.508;2023-06-10T06:43:05;99923.06;;;24.71;100.00
21545;BME280;10933;50.754;11.508;2023-06-10T06:45:31;99895.78;;;24.78;100.00
21545;BME280;10933;50.754;11.508;2023-06-10T06:47:59;99935.94;;;24.67;100.00
21545;BME280;10933;50.754;11.508;2023-06-10T06:50:25;99896.53;;;24.99;100.00
21545;BME280;10933;50.754;11.508;2023-06-10T06:52:52;99885.38;;;24.75;100.00
21545;BME280;10933;50.754;11.508;2023-06-10T06:55:18;99894.28;;;25.01;100.00
21545;BME280;10933;50.754;11.508;2023-06-10T06:57:44;99897.38;;;25.33;100.00
21545;BME280;10933;50.754;11.508;2023-06-10T07:00:10;99912.94;;;24.33;100.00
21545;BME280;10933;50.754;11.508;2023-06-10T07:02:37;99892.06;;;25.28;100.00
21545;BME280;10933;50.754;11.508;2023-06-10T07:05:03;99875.72;;;25.68;100.00
21545;BME280;10933;50.754;11.508;2023-06-10T07:07:29;99842.22;;;26.06;100.00
21545;BME280;10933;50.754;11.508;2023-06-10T07:09:56;99825.13;;;26.16;100.00
21545;BME280;10933;50.754;11.508;2023-06-10T07:12:22;99825.84;;;26.13;100.00
21545;BME280;10933;50.754;11.508;2023-06-10T07:14:50;99836.81;;;25.73;100.00
21545;BME280;10933;50.754;11.508;2023-06-10T07:17:17;99867.97;;;25.61;100.00
21545;BME280;10933;50.754;11.508;2023-06-10T07:19:44;99785.19;;;27.73;100.00
21545;BME280;10933;50.754;11.508;2023-06-10T07:22:11;99764.38;;;27.47;100.00
21545;BME280;10933;50.754;11.508;2023-06-10T07:24:37;99809.75;;;27.27;100.00
21545;BME280;10933;50.754;11.508;2023-06-10T07:27:03;99701.50;;;28.41;100.00
21545;BME280;10933;50.754;11.508;2023-06-10T07:29:29;99778.91;;;27.28;100.00
21545;BME280;10933;50.754;11.508;2023-06-10T07:31:56;99754.03;;;27.79;100.00
21545;BME280;10933;50.754;11.508;2023-06-10T07:34:22;99791.25;;;26.72;100.00
21545;BME280;10933;50.754;11.508;2023-06-10T07:36:48;99772.13;;;27.73;100.00
21545;BME280;10933;50.754;11.508;2023-06-10T07:39:14;99756.22;;;27.39;100.00
21545;BME280;10933;50.754;11.508;2023-06-10T07:41:40;99793.06;;;26.95;100.00
21545;BME280;10933;50.754;11.508;2023-06-10T07:44:07;99756.56;;;27.84;100.00
21545;BME280;10933;50.754;11.508;2023-06-10T07:46:33;99722.69;;;27.75;100.00
21545;BME280;10933;50.754;11.508;2023-06-10T07:48:59;99725.44;;;28.49;100.00
21545;BME280;10933;50.754;11.508;2023-06-10T07:51:25;99713.59;;;28.13;100.00
21545;BME280;10933;50.754;11.508;2023-06-10T07:53:51;99704.66;;;28.39;100.00
21545;BME280;10933;50.754;11.508;2023-06-10T07:56:17;99743.19;;;27.90;100.00
21545;BME280;10933;50.754;11.508;2023-06-10T07:58:43;99735.06;;;28.17;100.00
21545;BME280;10933;50.754;11.508;2023-06-10T08:01:10;99685.69;;;29.59;100.00
21545;BME280;10933;50.754;11.508;2023-06-10T08:03:36;99657.19;;;29.96;100.00
21545;BME280;10933;50.754;11.508;2023-06-10T08:06:02;99693.00;;;27.76;100.00
21545;BME280;10933;50.754;11.508;2023-06-10T08:08:29;99726.19;;;27.41;100.00
21545;BME280;10933;50.754;11.508;2023-06-10T08:10:55;99746.91;;;27.63;100.00
21545;BME280;10933;50.754;11.508;2023-06-10T08:13:21;99697.97;;;28.44;100.00
21545;BME280;10933;50.754;11.508;2023-06-10T08:15:48;99703.09;;;28.42;100.00
21545;BME280;10933;50.754;11.508;2023-06-10T08:18:16;99699.31;;;28.11;100.00
21545;BME280;10933;50.754;11.508;2023-06-10T08:20:42;99675.47;;;28.91;100.00
21545;BME280;10933;50.754;11.508;2023-06-10T08:23:09;99630.88;;;30.20;100.00
21545;BME280;10933;50.754;11.508;2023-06-10T08:25:35;99613.53;;;30.74;100.00
21545;BME280;10933;50.754;11.508;2023-06-10T08:28:01;99610.16;;;30.55;100.00
21545;BME280;10933;50.754;11.508;2023-06-10T08:30:27;99613.00;;;30.21;100.00
21545;BME280;10933;50.754;11.508;2023-06-10T08:32:53;99616.19;;;29.59;100.00
21545;BME280;10933;50.754;11.508;2023-06-10T08:35:21;99631.56;;;28.97;100.00
21545;BME280;10933;50.754;11.508;2023-06-10T08:37:47;99658.59;;;28.35;100.00
21545;BME280;10933;50.754;11.508;2023-06-10T08:40:13;99657.75;;;28.77;100.00
21545;BME280;10933;50.754;11.508;2023-06-10T08:42:45;99649.63;;;29.63;100.00
21545;BME280;10933;50.754;11.508;2023-06-10T08:45:17;99630.94;;;29.94;100.00
21545;BME280;10933;50.754;11.508;2023-06-10T08:47:45;99636.75;;;29.51;100.00
21545;BME280;10933;50.754;11.508;2023-06-10T08:50:12;99645.25;;;29.96;100.00
21545;BME280;10933;50.754;11.508;2023-06-10T08:52:44;99611.72;;;30.96;100.00
21545;BME280;10933;50.754;11.508;2023-06-10T08:55:27;99644.47;;;28.66;100.00
21545;BME280;10933;50.754;11.508;2023-06-10T08:57:55;99639.72;;;29.39;100.00
21545;BME280;10933;50.754;11.508;2023-06-10T09:00:22;99631.22;;;29.02;100.00
21545;BME280;10933;50.754;11.508;2023-06-10T09:02:48;99644.00;;;29.59;100.00
21545;BME280;10933;50.754;11.508;2023-06-10T09:05:14;99609.59;;;31.27;100.00
21545;BME280;10933;50.754;11.508;2023-06-10T09:07:41;99659.84;;;28.60;100.00
21545;BME280;10933;50.754;11.508;2023-06-10T09:10:08;99683.53;;;28.77;100.00
21545;BME280;10933;50.754;11.508;2023-06-10T09:12:35;99665.75;;;28.82;100.00
21545;BME280;10933;50.754;11.508;2023-06-10T09:15:02;99685.91;;;28.56;100.00
21545;BME280;10933;50.754;11.508;2023-06-10T09:17:29;99711.94;;;28.28;100.00
21545;BME280;10933;50.754;11.508;2023-06-10T09:19:55;99749.63;;;27.94;100.00
21545;BME280;10933;50.754;11.508;2023-06-10T09:22:23;99711.25;;;29.19;100.00
21545;BME280;10933;50.754;11.508;2023-06-10T09:27:49;99667.34;;;28.83;100.00
21545;BME280;10933;50.754;11.508;2023-06-10T09:32:56;99617.22;;;30.45;100.00
21545;BME280;10933;50.754;11.508;2023-06-10T09:35:24;99649.38;;;28.96;100.00
21545;BME280;10933;50.754;11.508;2023-06-10T09:37:52;99678.28;;;28.49;100.00
21545;BME280;10933;50.754;11.508;2023-06-10T09:40:19;99661.03;;;29.31;100.00
21545;BME280;10933;50.754;11.508;2023-06-10T09:42:46;99645.19;;;30.22;100.00
21545;BME280;10933;50.754;11.508;2023-06-10T09:45:15;99629.59;;;29.24;100.00
21545;BME280;10933;50.754;11.508;2023-06-10T09:47:41;99665.94;;;28.69;100.00
21545;BME280;10933;50.754;11.508;2023-06-10T09:50:08;99639.94;;;30.13;100.00
21545;BME280;10933;50.754;11.508;2023-06-10T09:52:34;99624.81;;;28.98;100.00
21545;BME280;10933;50.754;11.508;2023-06-10T09:55:03;99645.75;;;29.71;100.00
21545;BME280;10933;50.754;11.508;2023-06-10T09:57:33;99592.41;;;30.29;100.00
21545;BME280;10933;50.754;11.508;2023-06-10T10:00:03;99592.81;;;29.94;100.00
21545;BME280;10933;50.754;11.508;2023-06-10T10:02:30;99644.81;;;28.61;100.00
21545;BME280;10933;50.754;11.508;2023-06-10T10:05:03;99612.72;;;29.10;100.00
21545;BME280;10933;50.754;11.508;2023-06-10T10:07:30;99642.13;;;29.41;100.00
21545;BME280;10933;50.754;11.508;2023-06-10T10:09:56;99618.81;;;29.75;100.00
21545;BME280;10933;50.754;11.508;2023-06-10T10:12:24;99612.84;;;29.47;100.00
21545;BME280;10933;50.754;11.508;2023-06-10T10:14:53;99651.84;;;27.78;100.00
21545;BME280;10933;50.754;11.508;2023-06-10T10:17:21;99660.31;;;28.43;100.00
21545;BME280;10933;50.754;11.508;2023-06-10T10:20:03;99628.91;;;29.34;100.00
21545;BME280;10933;50.754;11.508;2023-06-10T10:22:38;99622.28;;;29.99;100.00
21545;BME280;10933;50.754;11.508;2023-06-10T10:25:11;99615.72;;;28.78;100.00
21545;BME280;10933;50.754;11.508;2023-06-10T10:27:59;99633.75;;;28.23;100.00
21545;BME280;10933;50.754;11.508;2023-06-10T10:30:28;99723.56;;;26.69;100.00
21545;BME280;10933;50.754;11.508;2023-06-10T10:33:04;99808.81;;;25.99;100.00
21545;BME280;10933;50.754;11.508;2023-06-10T10:35:33;99850.66;;;25.40;100.00
21545;BME280;10933;50.754;11.508;2023-06-10T10:38:00;99865.88;;;25.46;100.00
21545;BME280;10933;50.754;11.508;2023-06-10T10:40:29;99834.34;;;25.47;100.00
21545;BME280;10933;50.754;11.508;2023-06-10T10:42:56;99800.84;;;26.09;100.00
21545;BME280;10933;50.754;11.508;2023-06-10T10:45:24;99746.31;;;27.22;100.00
21545;BME280;10933;50.754;11.508;2023-06-10T10:47:54;99691.34;;;28.10;100.00
21545;BME280;10933;50.754;11.508;2023-06-10T10:50:24;99652.88;;;29.42;100.00
21545;BME280;10933;50.754;11.508;2023-06-10T10:53:01;99590.09;;;29.68;100.00
21545;BME280;10933;50.754;11.508;2023-06-10T10:55:28;99607.03;;;29.02;100.00
21545;BME280;10933;50.754;11.508;2023-06-10T11:00:29;99647.34;;;29.72;100.00
21545;BME280;10933;50.754;11.508;2023-06-10T11:05:38;99622.34;;;29.46;100.00
21545;BME280;10933;50.754;11.508;2023-06-10T11:08:05;99631.38;;;28.44;100.00
21545;BME280;10933;50.754;11.508;2023-06-10T11:10:39;99720.72;;;26.37;100.00
21545;BME280;10933;50.754;11.508;2023-06-10T11:13:10;99793.28;;;25.94;100.00
21545;BME280;10933;50.754;11.508;2023-06-10T11:15:46;99762.59;;;26.52;100.00
21545;BME280;10933;50.754;11.508;2023-06-10T11:18:23;99745.75;;;27.01;100.00
21545;BME280;10933;50.754;11.508;2023-06-10T11:23:30;99760.44;;;26.05;100.00
21545;BME280;10933;50.754;11.508;2023-06-10T11:31:20;99773.06;;;26.30;100.00
21545;BME280;10933;50.754;11.508;2023-06-10T11:33:48;99793.16;;;25.91;100.00
21545;BME280;10933;50.754;11.508;2023-06-10T11:36:14;99811.75;;;25.20;100.00
21545;BME280;10933;50.754;11.508;2023-06-10T11:38:42;99832.59;;;24.97;100.00
21545;BME280;10933;50.754;11.508;2023-06-10T11:41:08;99857.91;;;24.99;100.00
21545;BME280;10933;50.754;11.508;2023-06-10T11:43:34;99848.81;;;25.19;100.00
21545;BME280;10933;50.754;11.508;2023-06-10T11:46:01;99794.03;;;26.19;100.00
21545;BME280;10933;50.754;11.508;2023-06-10T11:48:28;99699.16;;;27.03;100.00
21545;BME280;10933;50.754;11.508;2023-06-10T11:50:57;99687.91;;;26.52;100.00
21545;BME280;10933;50.754;11.508;2023-06-10T11:53:23;99730.09;;;25.56;100.00
21545;BME280;10933;50.754;11.508;2023-06-10T11:55:51;99756.31;;;25.26;100.00
21545;BME280;10933;50.754;11.508;2023-06-10T11:58:22;99752.63;;;25.21;100.00
21545;BME280;10933;50.754;11.508;2023-06-10T12:00:52;99712.03;;;26.67;100.00
21545;BME280;10933;50.754;11.508;2023-06-10T12:03:20;99668.69;;;26.71;100.00
21545;BME280;10933;50.754;11.508;2023-06-10T12:05:59;99646.72;;;27.61;100.00
21545;BME280;10933;50.754;11.508;2023-06-10T12:08:26;99648.41;;;26.98;100.00
21545;BME280;10933;50.754;11.508;2023-06-10T12:10:54;99672.16;;;26.12;100.00
21545;BME280;10933;50.754;11.508;2023-06-10T12:13:20;99693.66;;;26.59;100.00
21545;BME280;10933;50.754;11.508;2023-06-10T12:15:47;99667.00;;;27.65;100.00
21545;BME280;10933;50.754;11.508;2023-06-10T12:18:21;99662.22;;;27.30;100.00
21545;BME280;10933;50.754;11.508;2023-06-10T12:20:48;99649.50;;;27.10;100.00
21545;BME280;10933;50.754;11.508;2023-06-10T12:23:17;99691.56;;;26.00;100.00
21545;BME280;10933;50.754;11.508;2023-06-10T12:25:54;99697.16;;;25.75;100.00
21545;BME280;10933;50.754;11.508;2023-06-10T12:28:24;99653.44;;;27.09;100.00
21545;BME280;10933;50.754;11.508;2023-06-10T12:30:51;99601.03;;;27.54;100.00
21545;BME280;10933;50.754;11.508;2023-06-10T12:33:31;99585.84;;;27.64;100.00
21545;BME280;10933;50.754;11.508;2023-06-10T12:35:57;99589.16;;;26.68;100.00
21545;BME280;10933;50.754;11.508;2023-06-10T12:38:26;99638.81;;;26.05;100.00
21545;BME280;10933;50.754;11.508;2023-06-10T12:40:53;99640.81;;;25.92;100.00
21545;BME280;10933;50.754;11.508;2023-06-10T12:43:25;99625.03;;;25.93;100.00
21545;BME280;10933;50.754;11.508;2023-06-10T12:45:52;99592.56;;;26.18;100.00
21545;BME280;10933;50.754;11.508;2023-06-10T12:48:23;99557.59;;;27.39;100.00
21545;BME280;10933;50.754;11.508;2023-06-10T12:50:57;99520.56;;;27.86;100.00
21545;BME280;10933;50.754;11.508;2023-06-10T12:53:24;99514.84;;;27.40;100.00
21545;BME280;10933;50.754;11.508;2023-06-10T12:55:52;99514.13;;;27.43;100.00
21545;BME280;10933;50.754;11.508;2023-06-10T12:58:22;99524.38;;;26.88;100.00
21545;BME280;10933;50.754;11.508;2023-06-10T13:00:49;99542.41;;;26.03;100.00
21545;BME280;10933;50.754;11.508;2023-06-10T13:03:18;99526.50;;;27.11;100.00